Time;durP1;ratioP1;P1;durP2;ratioP2;P2;SDS_P1;SDS_P2;PMS_P1;PMS_P2;Temp;Humidity;BMP_temperature;BMP_pressure;BME280_temperature;BME280_humidity;BME280_pressure;Samples;Min_cycle;Max_cycle;Signal;HPM_P1;HPM_P2
2023/06/20 00:01:00;;;;;;;19.90;15.80;;;16.20;99.90;;;;;;5015091;28;20178;-56
2023/06/20 00:03:25;;;;;;;24.63;16.23;;;16.10;99.90;;;;;;5015432;28;20181;-54
2023/06/20 00:05:51;;;;;;;21.37;16.40;;;16.10;99.90;;;;;;5015178;28;20640;-54
2023/06/20 00:08:17;;;;;;;22.43;15.80;;;16.00;1.00;;;;;;5015368;28;20207;-54
2023/06/20 00:10:42;;;;;;;20.90;15.43;;;16.00;1.00;;;;;;5015396;28;20633;-54
2023/06/20 00:13:08;;;;;;;21.70;15.93;;;16.00;1.00;;;;;;5015550;28;20273;-55
2023/06/20 00:15:33;;;;;;;17.67;15.00;;;16.00;1.00;;;;;;5015579;28;20187;-55
2023/06/20 00:18:02;;;;;;;17.60;14.87;;;15.90;1.00;;;;;;5015263;28;20191;-54
2023/06/20 00:20:28;;;;;;;18.00;14.23;;;15.90;1.00;;;;;;5014935;28;20183;-55
2023/06/20 00:22:54;;;;;;;18.87;14.90;;;15.90;1.00;;;;;;5015573;28;20427;-55
2023/06/20 00:25:20;;;;;;;18.73;15.30;;;15.80;1.00;;;;;;5014722;28;20902;-54
2023/06/20 00:27:46;;;;;;;19.67;15.87;;;15.80;1.00;;;;;;5015058;28;20476;-55
2023/06/20 00:30:12;;;;;;;24.43;17.27;;;15.70;1.00;;;;;;5015352;28;20654;-54
2023/06/20 00:32:38;;;;;;;19.43;15.87;;;15.70;1.00;;;;;;5015029;28;20175;-54
2023/06/20 00:35:03;;;;;;;20.07;15.57;;;15.60;26.90;;;;;;5014750;28;20778;-55
2023/06/20 00:37:29;;;;;;;22.43;16.43;;;15.60;21.70;;;;;;5014833;28;20188;-54
2023/06/20 00:39:55;;;;;;;17.73;14.70;;;15.60;4.60;;;;;;5014668;28;20540;-55
2023/06/20 00:42:23;;;;;;;21.00;15.60;;;15.60;96.80;;;;;;5014559;28;20193;-55
2023/06/20 00:44:49;;;;;;;19.50;16.10;;;15.50;99.90;;;;;;5014553;28;20190;-54
2023/06/20 00:47:16;;;;;;;18.07;14.53;;;15.50;99.90;;;;;;5014322;28;20472;-55
2023/06/20 00:49:44;;;;;;;22.07;15.93;;;15.50;99.90;;;;;;5014624;28;20418;-55
2023/06/20 00:52:09;;;;;;;21.47;16.70;;;15.50;99.90;;;;;;5014673;28;20428;-55
2023/06/20 00:54:35;;;;;;;24.33;16.70;;;15.50;99.90;;;;;;5014638;28;20401;-54
2023/06/20 00:57:02;;;;;;;29.93;17.83;;;15.50;99.90;;;;;;5014043;28;20216;-56
2023/06/20 00:59:27;;;;;;;20.33;15.53;;;15.50;99.90;;;;;;5014183;28;20191;-55
2023/06/20 01:01:53;;;;;;;20.00;16.13;;;15.40;99.90;;;;;;5014496;28;20431;-54
2023/06/20 01:04:20;;;;;;;20.60;16.80;;;15.40;99.90;;;;;;5014472;28;20280;-55
2023/06/20 01:07:11;;;;;;;21.13;17.20;;;15.40;99.90;;;;;;5014179;28;20182;-54
2023/06/20 01:10:08;;;;;;;23.50;17.60;;;15.40;99.90;;;;;;5014094;28;20410;-55
2023/06/20 01:12:40;;;;;;;18.50;14.50;;;15.40;99.90;;;;;;5014200;28;20404;-54
2023/06/20 01:15:22;;;;;;;18.53;15.30;;;15.40;99.90;;;;;;5014365;28;20824;-54
2023/06/20 01:18:19;;;;;;;19.17;15.27;;;15.40;99.90;;;;;;5014133;28;20409;-54
2023/06/20 01:20:50;;;;;;;20.20;15.80;;;15.30;99.90;;;;;;5012833;28;20540;-54
2023/06/20 01:23:25;;;;;;;26.90;16.13;;;15.30;99.90;;;;;;5013668;28;20967;-54
2023/06/20 01:26:03;;;;;;;27.10;17.07;;;15.30;99.90;;;;;;5014056;28;20528;-56
2023/06/20 01:28:53;;;;;;;26.67;17.33;;;15.20;99.90;;;;;;5013889;28;20454;-55
2023/06/20 01:31:40;;;;;;;27.33;18.00;;;15.10;99.90;;;;;;5014028;28;20413;-55
2023/06/20 01:34:14;;;;;;;23.40;17.40;;;15.10;99.90;;;;;;5014215;28;20423;-55
2023/06/20 01:36:44;;;;;;;24.80;16.77;;;15.10;99.90;;;;;;5013609;28;20857;-55
2023/06/20 01:39:15;;;;;;;19.23;15.87;;;15.20;99.90;;;;;;5013750;28;20974;-54
2023/06/20 01:41:44;;;;;;;19.27;16.13;;;15.10;99.90;;;;;;5013614;28;20487;-54
2023/06/20 01:44:12;;;;;;;20.50;16.73;;;15.10;99.90;;;;;;5013335;28;20912;-56
2023/06/20 01:46:38;;;;;;;22.53;17.17;;;15.10;99.90;;;;;;5013526;28;20764;-54
2023/06/20 01:49:05;;;;;;;19.03;15.20;;;15.10;99.90;;;;;;5013942;28;20575;-55
2023/06/20 01:51:32;;;;;;;20.00;15.20;;;15.10;99.90;;;;;;5013783;28;20474;-55
2023/06/20 01:54:02;;;;;;;21.77;15.97;;;15.00;99.90;;;;;;5013542;28;20472;-54
2023/06/20 01:56:30;;;;;;;28.33;19.67;;;15.00;99.90;;;;;;5013928;28;20413;-55
2023/06/20 01:58:58;;;;;;;20.07;17.17;;;15.00;99.90;;;;;;5013845;28;20419;-55
2023/06/20 02:01:24;;;;;;;24.00;18.97;;;14.90;99.90;;;;;;5013194;28;20783;-55
2023/06/20 02:03:53;;;;;;;22.07;17.07;;;15.00;99.90;;;;;;5013585;28;20426;-54
2023/06/20 02:06:20;;;;;;;20.87;17.13;;;14.90;99.90;;;;;;5013337;28;20899;-53
2023/06/20 02:08:46;;;;;;;26.20;18.80;;;14.90;99.90;;;;;;5013470;28;20464;-55
2023/06/20 02:11:12;;;;;;;25.37;17.57;;;14.90;99.90;;;;;;5013503;28;20420;-56
2023/06/20 02:13:38;;;;;;;23.90;17.00;;;14.90;99.90;;;;;;5017303;28;20266;-55
2023/06/20 02:16:08;;;;;;;18.77;16.50;;;14.80;99.90;;;;;;5017679;28;20415;-54
2023/06/20 02:18:34;;;;;;;21.73;16.30;;;14.80;99.90;;;;;;5017591;28;20432;-54
2023/06/20 02:21:09;;;;;;;22.50;16.77;;;14.80;99.90;;;;;;5017577;28;20409;-54
2023/06/20 02:23:38;;;;;;;23.10;17.53;;;14.70;99.90;;;;;;5017553;28;20486;-55
2023/06/20 02:26:09;;;;;;;22.70;18.10;;;14.80;99.90;;;;;;5017297;28;20458;-56
2023/06/20 02:28:46;;;;;;;22.30;18.40;;;14.70;99.90;;;;;;5016962;28;21024;-55
2023/06/20 02:31:24;;;;;;;24.43;19.10;;;14.70;99.90;;;;;;5016985;28;20406;-54
2023/06/20 02:33:53;;;;;;;21.73;17.37;;;14.70;99.90;;;;;;5016791;28;20462;-54
2023/06/20 02:36:25;;;;;;;24.33;17.97;;;14.70;99.90;;;;;;5017148;28;20445;-54
2023/06/20 02:38:52;;;;;;;21.60;17.03;;;14.70;99.90;;;;;;5017348;28;20461;-54
2023/06/20 02:41:19;;;;;;;20.60;17.20;;;14.60;99.90;;;;;;5017097;28;20782;-54
2023/06/20 02:43:45;;;;;;;21.90;18.10;;;14.60;99.90;;;;;;5017043;28;20416;-54
2023/06/20 02:46:38;;;;;;;23.97;18.67;;;14.60;99.90;;;;;;5016552;28;20428;-55
2023/06/20 02:49:39;;;;;;;22.97;18.60;;;14.60;99.90;;;;;;5016868;28;20252;-55
2023/06/20 02:52:17;;;;;;;20.50;16.17;;;14.60;99.90;;;;;;5016237;28;20430;-54
2023/06/20 02:55:02;;;;;;;22.67;17.57;;;14.60;99.90;;;;;;5016798;28;20457;-54
2023/06/20 02:57:30;;;;;;;21.90;17.80;;;14.60;99.90;;;;;;5016765;28;20729;-55
2023/06/20 03:00:05;;;;;;;23.70;17.97;;;14.60;99.90;;;;;;5016285;28;20427;-56
2023/06/20 03:02:33;;;;;;;25.23;18.33;;;14.60;99.90;;;;;;5016553;28;20402;-55
2023/06/20 03:05:03;;;;;;;19.27;15.87;;;14.60;99.90;;;;;;5016710;28;20415;-57
2023/06/20 03:07:33;;;;;;;21.77;17.70;;;14.60;99.90;;;;;;5016660;28;20452;-55
2023/06/20 03:10:01;;;;;;;21.77;17.53;;;14.60;99.90;;;;;;5016540;28;20408;-55
2023/06/20 03:12:26;;;;;;;22.23;17.50;;;14.60;99.90;;;;;;5016522;28;20431;-55
2023/06/20 03:14:52;;;;;;;26.30;19.10;;;14.70;99.90;;;;;;5016483;28;20421;-54
2023/06/20 03:17:18;;;;;;;22.80;18.10;;;14.60;99.90;;;;;;5016393;28;20189;-54
2023/06/20 03:19:43;;;;;;;23.00;18.80;;;14.70;99.90;;;;;;5016199;28;20204;-52
2023/06/20 03:22:09;;;;;;;25.10;18.40;;;14.60;99.90;;;;;;5016295;28;20271;-57
2023/06/20 03:24:35;;;;;;;24.23;16.33;;;14.70;99.90;;;;;;5015873;28;20189;-55
2023/06/20 03:27:00;;;;;;;26.27;19.80;;;14.70;99.90;;;;;;5015775;28;20643;-55
2023/06/20 03:29:26;;;;;;;22.33;17.90;;;14.70;99.90;;;;;;5016361;28;20424;-54
2023/06/20 03:31:51;;;;;;;23.30;17.80;;;14.70;99.90;;;;;;5015763;28;20525;-57
2023/06/20 03:34:17;;;;;;;23.07;18.70;;;14.70;99.90;;;;;;5016160;28;20194;-54
2023/06/20 03:36:43;;;;;;;25.83;19.00;;;14.70;99.90;;;;;;5015957;28;20642;-54
2023/06/20 03:39:09;;;;;;;27.33;19.57;;;14.70;99.90;;;;;;5015754;28;20200;-57
2023/06/20 03:41:35;;;;;;;25.60;18.90;;;14.80;99.90;;;;;;5015923;28;20421;-57
2023/06/20 03:44:01;;;;;;;23.60;19.83;;;14.80;99.90;;;;;;5015425;28;20539;-56
2023/06/20 03:46:26;;;;;;;30.93;20.70;;;14.90;99.90;;;;;;5016057;28;20190;-55
2023/06/20 03:48:52;;;;;;;24.80;18.50;;;15.00;99.90;;;;;;5015563;28;21215;-55
2023/06/20 03:51:18;;;;;;;20.30;17.30;;;15.10;99.90;;;;;;5015863;28;20187;-55
2023/06/20 03:53:43;;;;;;;21.90;17.70;;;15.20;99.90;;;;;;5015265;28;20230;-55
2023/06/20 03:56:09;;;;;;;21.30;17.50;;;15.30;99.90;;;;;;5015420;28;20178;-54
2023/06/20 03:58:34;;;;;;;25.33;19.37;;;15.40;99.90;;;;;;5015357;28;20193;-55
2023/06/20 04:01:00;;;;;;;25.20;19.10;;;15.40;99.90;;;;;;5015252;28;20241;-54
2023/06/20 04:03:25;;;;;;;22.63;18.23;;;15.50;99.90;;;;;;5015622;28;20182;-55
2023/06/20 04:05:51;;;;;;;22.60;17.67;;;15.60;99.90;;;;;;5015493;28;20239;-54
2023/06/20 04:08:17;;;;;;;22.53;17.27;;;15.70;99.90;;;;;;5015636;28;20300;-55
2023/06/20 04:10:42;;;;;;;24.60;18.80;;;15.70;99.90;;;;;;5015192;28;20186;-54
2023/06/20 04:13:08;;;;;;;24.10;16.70;;;15.80;99.90;;;;;;5015323;28;20208;-55
2023/06/20 04:15:33;;;;;;;21.03;18.13;;;15.90;99.90;;;;;;5015022;28;20181;-54
2023/06/20 04:17:59;;;;;;;24.57;16.70;;;16.00;99.90;;;;;;5014871;28;20322;-55
2023/06/20 04:20:24;;;;;;;20.80;18.33;;;16.10;99.90;;;;;;5014855;28;20188;-55
2023/06/20 04:22:50;;;;;;;21.43;18.23;;;16.10;99.90;;;;;;5014913;28;20529;-55
2023/06/20 04:25:16;;;;;;;20.83;16.53;;;16.20;99.90;;;;;;5014741;28;20279;-56
2023/06/20 04:27:42;;;;;;;24.93;18.97;;;16.30;99.90;;;;;;5015012;28;20208;-55
2023/06/20 04:30:08;;;;;;;24.60;18.47;;;16.30;99.90;;;;;;5015131;28;20186;-54
2023/06/20 04:32:34;;;;;;;25.10;19.97;;;16.30;99.90;;;;;;5014918;28;20452;-54
2023/06/20 04:35:00;;;;;;;19.47;17.10;;;16.40;99.90;;;;;;5014392;28;20432;-55
2023/06/20 04:37:29;;;;;;;25.00;17.77;;;16.50;99.90;;;;;;5014817;28;20433;-55
2023/06/20 04:39:56;;;;;;;25.83;19.20;;;16.60;99.90;;;;;;5014913;28;20214;-54
2023/06/20 04:42:21;;;;;;;23.80;18.60;;;16.60;99.90;;;;;;5014857;28;20425;-55
2023/06/20 04:44:48;;;;;;;24.03;18.40;;;16.80;99.90;;;;;;5014302;28;20416;-55
2023/06/20 04:47:14;;;;;;;22.47;18.57;;;16.90;99.90;;;;;;5014683;28;20191;-55
2023/06/20 04:49:40;;;;;;;21.47;17.03;;;17.10;99.90;;;;;;5014616;28;20430;-55
2023/06/20 04:52:06;;;;;;;21.33;17.00;;;17.30;99.90;;;;;;5014488;28;20266;-55
2023/06/20 04:54:32;;;;;;;23.50;17.83;;;17.40;99.90;;;;;;5014725;28;20202;-55
2023/06/20 04:56:57;;;;;;;26.10;17.00;;;17.60;99.90;;;;;;5014438;28;20810;-55
2023/06/20 04:59:23;;;;;;;21.00;18.00;;;17.80;99.90;;;;;;5014563;28;20523;-55
2023/06/20 05:01:51;;;;;;;22.13;16.17;;;18.00;99.90;;;;;;5014599;28;20218;-55
2023/06/20 05:04:17;;;;;;;20.80;16.83;;;18.20;99.90;;;;;;5014189;28;20610;-55
2023/06/20 05:06:45;;;;;;;28.03;16.80;;;18.40;99.90;;;;;;5014500;28;20485;-55
2023/06/20 05:09:11;;;;;;;19.33;16.67;;;18.60;99.90;;;;;;5014109;28;21000;-55
2023/06/20 05:11:37;;;;;;;18.60;15.60;;;18.70;99.90;;;;;;5014035;28;20452;-54
2023/06/20 05:14:03;;;;;;;21.00;15.27;;;18.90;99.90;;;;;;5013907;28;20487;-54
2023/06/20 05:16:28;;;;;;;18.63;15.50;;;19.20;99.90;;;;;;5014349;28;20186;-55
2023/06/20 05:18:54;;;;;;;18.33;13.30;;;19.60;99.90;;;;;;5014095;28;20184;-55
2023/06/20 05:21:19;;;;;;;16.73;13.70;;;19.70;54.90;;;;;;5014254;28;20670;-54
2023/06/20 05:23:45;;;;;;;13.93;12.43;;;19.90;1.00;;;;;;5014073;28;20219;-54
2023/06/20 05:26:11;;;;;;;13.23;11.73;;;20.00;99.90;;;;;;5013647;28;20366;-54
2023/06/20 05:28:37;;;;;;;13.30;10.17;;;20.20;99.90;;;;;;5013548;28;20601;-55
2023/06/20 05:31:03;;;;;;;13.57;9.97;;;20.40;99.90;;;;;;5014200;28;20505;-55
2023/06/20 05:33:29;;;;;;;10.40;8.90;;;20.70;82.00;;;;;;5013917;28;20548;-54
2023/06/20 05:35:55;;;;;;;10.90;8.67;;;20.90;1.00;;;;;;5014047;28;20250;-55
2023/06/20 05:38:20;;;;;;;11.50;8.70;;;21.10;1.00;;;;;;5014045;28;20417;-54
2023/06/20 05:40:46;;;;;;;10.83;8.80;;;21.30;1.00;;;;;;5013882;28;20267;-54
2023/06/20 05:43:12;;;;;;;11.50;9.00;;;21.30;1.00;;;;;;5013653;28;20518;-54
2023/06/20 05:45:37;;;;;;;10.10;8.30;;;21.20;1.00;;;;;;5013413;28;20219;-55
2023/06/20 05:48:03;;;;;;;10.30;8.70;;;21.30;1.00;;;;;;5013719;28;20214;-54
2023/06/20 05:50:30;;;;;;;9.77;7.87;;;21.30;1.00;;;;;;5013798;28;20191;-54
2023/06/20 05:52:56;;;;;;;11.00;7.70;;;21.40;1.00;;;;;;5013194;28;20482;-54
2023/06/20 05:55:22;;;;;;;12.63;8.13;;;21.50;1.00;;;;;;5013675;28;20415;-55
2023/06/20 05:57:47;;;;;;;8.73;7.20;;;21.50;1.00;;;;;;5013525;28;20189;-55
2023/06/20 06:00:14;;;;;;;10.93;6.80;;;21.30;1.00;;;;;;5013444;28;20184;-54
2023/06/20 06:02:40;;;;;;;10.30;8.00;;;21.10;1.00;;;;;;5013244;28;20660;-54
2023/06/20 06:05:06;;;;;;;7.87;6.83;;;21.00;1.00;;;;;;5013407;28;20436;-54
2023/06/20 06:07:31;;;;;;;12.60;7.70;;;21.00;1.00;;;;;;5013361;28;20455;-55
2023/06/20 06:09:57;;;;;;;10.67;6.83;;;21.00;1.00;;;;;;5012136;28;20471;-55
2023/06/20 06:12:23;;;;;;;8.40;7.40;;;21.10;1.00;;;;;;5013354;28;20202;-54
2023/06/20 06:14:51;;;;;;;7.83;6.70;;;21.20;1.00;;;;;;5013520;28;20266;-53
2023/06/20 06:17:17;;;;;;;8.70;7.30;;;21.40;1.00;;;;;;5013245;28;20191;-55
2023/06/20 06:19:42;;;;;;;11.83;7.17;;;21.60;1.00;;;;;;5013454;28;20424;-54
2023/06/20 06:22:08;;;;;;;8.63;6.40;;;21.70;1.00;;;;;;5013487;28;20241;-54
2023/06/20 06:24:34;;;;;;;8.30;6.77;;;21.90;1.00;;;;;;5013010;28;20184;-54
2023/06/20 06:26:59;;;;;;;8.63;6.67;;;22.10;1.00;;;;;;5013062;28;20186;-54
2023/06/20 06:29:26;;;;;;;10.67;6.73;;;22.40;1.00;;;;;;5013303;28;20186;-54
2023/06/20 06:31:53;;;;;;;10.67;6.60;;;22.50;1.00;;;;;;5013129;28;20196;-54
2023/06/20 06:34:19;;;;;;;8.37;5.80;;;22.50;1.00;;;;;;5013459;28;20412;-54
2023/06/20 06:36:49;;;;;;;7.37;6.13;;;22.40;1.00;;;;;;5013182;28;20418;-54
2023/06/20 06:39:17;;;;;;;9.73;6.87;;;22.40;1.00;;;;;;5012811;28;20793;-54
2023/06/20 06:41:45;;;;;;;6.50;5.83;;;22.50;1.00;;;;;;5012834;28;20427;-54
2023/06/20 06:44:11;;;;;;;9.20;6.40;;;22.80;1.00;;;;;;5012762;28;20570;-54
2023/06/20 06:46:37;;;;;;;8.20;6.10;;;22.90;1.00;;;;;;5013503;28;20463;-54
2023/06/20 06:49:02;;;;;;;7.20;6.00;;;23.20;1.00;;;;;;5013090;28;20555;-53
2023/06/20 06:51:28;;;;;;;6.57;5.87;;;23.40;1.00;;;;;;5013264;28;20195;-54
2023/06/20 06:53:54;;;;;;;8.47;5.40;;;23.60;1.00;;;;;;5012428;28;20240;-54
2023/06/20 06:56:19;;;;;;;6.80;6.07;;;23.90;1.00;;;;;;5012776;28;20928;-54
2023/06/20 06:58:45;;;;;;;8.10;6.30;;;24.30;1.00;;;;;;5014738;28;20183;-54
2023/06/20 07:01:10;;;;;;;12.20;5.60;;;24.50;1.00;;;;;;5016078;28;20191;-52
2023/06/20 07:03:36;;;;;;;8.60;5.73;;;24.90;1.00;;;;;;5016435;28;20188;-52
2023/06/20 07:06:01;;;;;;;7.70;5.97;;;25.30;1.00;;;;;;5016611;28;20689;-52
2023/06/20 07:08:27;;;;;;;8.87;5.60;;;25.50;1.00;;;;;;5016216;28;20565;-52
2023/06/20 07:10:53;;;;;;;7.03;5.80;;;25.50;1.00;;;;;;5016053;28;20184;-52
2023/06/20 07:13:18;;;;;;;7.27;5.77;;;25.30;1.00;;;;;;5016009;28;20186;-52
2023/06/20 07:15:44;;;;;;;6.43;5.30;;;25.20;1.00;;;;;;5016253;28;20638;-52
2023/06/20 07:18:09;;;;;;;7.97;5.40;;;25.10;1.00;;;;;;5015962;28;20616;-52
2023/06/20 07:20:35;;;;;;;5.37;4.87;;;25.10;1.00;;;;;;5015816;28;20183;-52
2023/06/20 07:23:00;;;;;;;7.13;5.97;;;25.30;1.00;;;;;;5015806;28;20175;-51
2023/06/20 07:25:26;;;;;;;9.20;6.13;;;25.40;99.90;;;;;;5015632;28;20187;-51
2023/06/20 07:27:51;;;;;;;6.50;5.27;;;25.60;99.90;;;;;;5016035;28;20211;-51
2023/06/20 07:30:17;;;;;;;6.23;5.60;;;25.90;99.90;;;;;;5016013;28;20190;-51
2023/06/20 07:32:43;;;;;;;7.73;5.90;;;26.30;99.90;;;;;;5015368;28;20192;-51
2023/06/20 07:35:08;;;;;;;7.47;5.87;;;26.60;99.90;;;;;;5015661;28;20272;-52
2023/06/20 07:37:34;;;;;;;6.93;5.90;;;26.90;99.90;;;;;;5015777;28;20187;-51
2023/06/20 07:40:00;;;;;;;6.30;5.70;;;27.00;99.90;;;;;;5015248;28;20641;-52
2023/06/20 07:42:26;;;;;;;9.77;5.53;;;27.00;99.90;;;;;;5015558;28;20198;-52
2023/06/20 07:44:51;;;;;;;8.50;5.37;;;27.20;99.90;;;;;;5015195;28;20415;-52
2023/06/20 07:47:17;;;;;;;6.87;5.73;;;27.30;99.90;;;;;;5015647;28;20210;-53
2023/06/20 07:49:43;;;;;;;10.87;5.50;;;27.40;99.90;;;;;;5015559;28;20191;-54
2023/06/20 07:52:09;;;;;;;8.17;5.97;;;27.50;99.90;;;;;;5015153;28;20272;-53
2023/06/20 07:54:34;;;;;;;8.10;5.87;;;27.80;99.90;;;;;;5015657;28;20517;-51
2023/06/20 07:57:00;;;;;;;8.07;5.67;;;28.00;99.90;;;;;;5015091;28;20516;-51
2023/06/20 07:59:26;;;;;;;6.80;5.60;;;28.10;99.90;;;;;;5015032;28;20184;-51
2023/06/20 08:01:51;;;;;;;7.90;5.43;;;28.10;99.90;;;;;;5015172;28;20199;-51
2023/06/20 08:04:17;;;;;;;6.00;5.50;;;28.20;99.90;;;;;;5015269;28;20335;-51
2023/06/20 08:06:42;;;;;;;6.63;5.50;;;28.40;99.90;;;;;;5015004;28;20187;-51
2023/06/20 08:09:08;;;;;;;7.20;5.90;;;28.40;99.90;;;;;;5013930;28;20212;-52
2023/06/20 08:11:34;;;;;;;8.13;6.00;;;28.60;99.90;;;;;;5014683;28;20508;-51
2023/06/20 08:14:00;;;;;;;6.27;5.67;;;29.00;99.90;;;;;;5014487;28;20542;-51
2023/06/20 08:16:25;;;;;;;6.33;5.70;;;29.50;99.90;;;;;;5014657;28;20423;-51
2023/06/20 08:18:51;;;;;;;7.60;5.60;;;29.60;99.90;;;;;;5015157;28;20188;-54
2023/06/20 08:21:17;;;;;;;6.43;5.60;;;29.70;99.90;;;;;;5014714;28;20683;-51
2023/06/20 08:23:44;;;;;;;7.23;6.47;;;30.00;99.90;;;;;;5014790;28;20188;-52
2023/06/20 08:26:09;;;;;;;11.57;6.50;;;30.40;99.90;;;;;;5014627;28;20192;-52
2023/06/20 08:28:35;;;;;;;13.30;6.00;;;30.50;99.90;;;;;;5014460;28;20470;-52
2023/06/20 08:31:02;;;;;;;6.60;5.93;;;30.30;99.90;;;;;;5014631;28;20184;-52
2023/06/20 08:33:27;;;;;;;8.70;6.03;;;30.10;99.90;;;;;;5014652;28;20195;-52
2023/06/20 08:35:54;;;;;;;6.53;5.93;;;29.90;99.90;;;;;;5014611;28;20411;-52
2023/06/20 08:38:19;;;;;;;12.93;6.77;;;29.60;99.90;;;;;;5014258;28;20322;-52
2023/06/20 08:40:45;;;;;;;8.07;6.03;;;29.20;99.90;;;;;;5014569;28;20497;-52
2023/06/20 08:43:18;;;;;;;7.07;5.90;;;28.90;99.90;;;;;;5014634;28;20215;-52
2023/06/20 08:45:44;;;;;;;7.20;6.03;;;28.70;99.90;;;;;;5014558;28;20465;-52
2023/06/20 08:48:10;;;;;;;8.83;6.53;;;28.60;99.90;;;;;;5014693;28;20467;-52
2023/06/20 08:50:37;;;;;;;8.43;6.10;;;28.50;99.90;;;;;;5014054;28;20435;-53
2023/06/20 08:53:05;;;;;;;7.10;6.30;;;28.20;99.90;;;;;;5013901;28;20239;-51
2023/06/20 08:55:32;;;;;;;8.00;5.87;;;27.90;99.90;;;;;;5013948;28;20426;-51
2023/06/20 08:57:57;;;;;;;6.73;6.13;;;27.70;99.90;;;;;;5014184;28;20448;-51
2023/06/20 09:00:23;;;;;;;6.63;6.03;;;27.30;99.90;;;;;;5013630;28;20940;-51
2023/06/20 09:02:53;;;;;;;7.50;6.67;;;27.30;99.90;;;;;;5013943;28;20180;-51
2023/06/20 09:05:19;;;;;;;8.20;6.17;;;27.30;99.90;;;;;;5013537;28;20282;-51
2023/06/20 09:07:45;;;;;;;9.80;6.53;;;27.40;99.90;;;;;;5013812;28;20473;-51
2023/06/20 09:10:16;;;;;;;8.60;6.43;;;27.50;99.90;;;;;;5013662;28;20414;-51
2023/06/20 09:12:49;;;;;;;7.73;6.50;;;27.70;99.90;;;;;;5013719;28;20576;-52
2023/06/20 09:15:17;;;;;;;13.00;6.20;;;28.00;99.90;;;;;;5013627;28;20928;-52
2023/06/20 09:17:44;;;;;;;7.80;6.60;;;28.60;99.90;;;;;;5014016;28;20427;-52
2023/06/20 09:20:14;;;;;;;7.83;6.60;;;29.50;99.90;;;;;;5014128;28;20470;-52
2023/06/20 09:22:40;;;;;;;8.60;6.03;;;30.10;99.90;;;;;;5013875;28;20430;-53
2023/06/20 09:25:07;;;;;;;10.23;7.07;;;30.70;99.90;;;;;;5013534;28;20964;-53
2023/06/20 09:27:37;;;;;;;6.90;6.03;;;31.10;99.90;;;;;;5013394;28;20827;-53
2023/06/20 09:30:04;;;;;;;14.63;6.53;;;31.00;99.90;;;;;;5013229;28;20423;-53
2023/06/20 09:32:37;;;;;;;7.17;6.47;;;31.50;99.90;;;;;;5013144;28;20427;-53
2023/06/20 09:35:05;;;;;;;8.13;6.40;;;32.00;99.90;;;;;;5013330;28;20430;-53
2023/06/20 09:37:37;;;;;;;10.10;6.73;;;32.50;99.90;;;;;;5013938;28;20423;-53
2023/06/20 09:40:09;;;;;;;9.90;7.20;;;33.00;99.90;;;;;;5013592;28;20431;-53
2023/06/20 09:42:36;;;;;;;7.83;6.10;;;33.20;99.90;;;;;;5013099;28;20428;-53
2023/06/20 09:45:02;;;;;;;10.00;6.67;;;33.20;99.90;;;;;;5013475;28;20447;-53
2023/06/20 09:47:29;;;;;;;10.13;7.13;;;33.20;99.90;;;;;;5013071;28;20502;-53
2023/06/20 09:49:58;;;;;;;11.60;6.37;;;33.50;99.90;;;;;;5013100;28;20188;-53
2023/06/20 09:52:43;;;;;;;13.43;6.67;;;33.60;99.90;;;;;;5012897;28;20473;-55
2023/06/20 09:55:14;;;;;;;10.90;6.20;;;33.70;99.90;;;;;;5013504;28;20856;-55
2023/06/20 09:57:42;;;;;;;8.97;6.60;;;33.80;99.90;;;;;;5013178;28;20514;-55
2023/06/20 10:00:15;;;;;;;8.60;6.77;;;33.80;99.90;;;;;;5013724;28;20468;-54
2023/06/20 10:02:46;;;;;;;7.00;6.27;;;33.80;99.90;;;;;;5013004;28;20419;-54
2023/06/20 10:05:17;;;;;;;7.07;6.47;;;33.70;99.90;;;;;;5013025;28;20408;-55
2023/06/20 10:07:44;;;;;;;7.33;6.60;;;33.30;99.90;;;;;;5012999;28;20541;-54
2023/06/20 10:10:11;;;;;;;16.13;5.90;;;33.40;99.90;;;;;;5013055;28;20501;-54
2023/06/20 10:12:39;;;;;;;11.90;6.57;;;33.80;99.90;;;;;;5013345;28;20751;-54
2023/06/20 10:15:09;;;;;;;10.60;7.60;;;34.30;99.90;;;;;;5013000;28;20984;-54
2023/06/20 10:17:48;;;;;;;10.47;7.87;;;34.70;99.90;;;;;;5013570;28;20395;-54
2023/06/20 10:20:43;;;;;;;10.60;8.27;;;35.00;99.90;;;;;;5013202;28;20403;-54
2023/06/20 10:23:10;;;;;;;7.90;7.10;;;34.10;99.90;;;;;;5008598;28;20514;-54
2023/06/20 10:25:58;;;;;;;9.17;7.40;;;32.40;99.90;;;;;;5013234;28;20394;-54
2023/06/20 10:28:24;;;;;;;9.17;8.03;;;31.70;99.90;;;;;;5012939;28;20466;-54
2023/06/20 10:30:49;;;;;;;9.63;7.80;;;31.20;99.90;;;;;;5013142;28;20426;-54
2023/06/20 10:33:34;;;;;;;10.87;7.73;;;30.90;99.90;;;;;;5014416;28;20960;-54
2023/06/20 10:36:10;;;;;;;10.43;8.40;;;30.40;99.90;;;;;;5016977;28;20180;-54
2023/06/20 10:38:38;;;;;;;12.03;7.70;;;30.10;99.90;;;;;;5016865;28;20449;-54
2023/06/20 10:41:12;;;;;;;12.47;7.70;;;29.70;99.90;;;;;;5016504;28;20430;-54
2023/06/20 10:43:55;;;;;;;9.43;8.00;;;29.20;99.90;;;;;;5016690;28;20407;-52
2023/06/20 10:46:36;;;;;;;10.13;9.00;;;28.80;99.90;;;;;;5016477;28;20779;-52
2023/06/20 10:49:06;;;;;;;12.87;8.80;;;28.50;99.90;;;;;;5016262;28;20463;-51
2023/06/20 10:51:46;;;;;;;10.43;8.27;;;28.30;99.90;;;;;;5016349;28;20552;-51
2023/06/20 10:54:13;;;;;;;12.00;8.90;;;28.10;99.90;;;;;;5015988;28;20506;-51
2023/06/20 10:56:39;;;;;;;11.40;8.67;;;28.10;99.90;;;;;;5016173;28;20458;-51
2023/06/20 10:59:11;;;;;;;8.93;8.03;;;28.00;99.90;;;;;;5016394;28;20455;-51
2023/06/20 11:01:38;;;;;;;10.23;9.17;;;28.00;99.90;;;;;;5015949;28;20258;-51
2023/06/20 11:04:14;;;;;;;9.13;8.23;;;28.10;99.90;;;;;;5016162;28;20418;-51
2023/06/20 11:06:41;;;;;;;9.30;8.40;;;27.90;99.90;;;;;;5016316;28;20176;-51
2023/06/20 11:09:17;;;;;;;8.70;7.80;;;27.90;99.90;;;;;;5015710;28;20953;-50
2023/06/20 11:11:42;;;;;;;16.40;9.60;;;27.90;99.90;;;;;;5016056;28;20430;-52
2023/06/20 11:14:13;;;;;;;10.07;8.80;;;27.70;99.90;;;;;;5016204;28;20411;-51
2023/06/20 11:16:39;;;;;;;13.20;9.47;;;27.60;99.90;;;;;;5016418;28;20187;-51
2023/06/20 11:19:05;;;;;;;9.27;8.13;;;27.60;99.90;;;;;;5016065;28;20481;-51
2023/06/20 11:21:31;;;;;;;13.03;9.60;;;27.40;99.90;;;;;;5015545;28;20411;-50
2023/06/20 11:24:01;;;;;;;13.00;8.87;;;27.40;99.90;;;;;;5015801;28;20180;-51
2023/06/20 11:26:33;;;;;;;10.13;9.10;;;27.40;99.90;;;;;;5015511;28;20176;-52
2023/06/20 11:29:05;;;;;;;9.30;8.33;;;27.40;99.90;;;;;;5015408;28;20541;-51
2023/06/20 11:31:32;;;;;;;10.07;8.33;;;27.40;99.90;;;;;;5015410;28;20990;-51
2023/06/20 11:34:11;;;;;;;10.50;9.43;;;27.40;99.90;;;;;;5015783;28;20506;-51
2023/06/20 11:36:38;;;;;;;11.33;9.07;;;27.60;99.90;;;;;;5015940;28;20410;-52
2023/06/20 11:39:09;;;;;;;8.60;7.53;;;27.80;99.90;;;;;;5015290;28;20458;-51
2023/06/20 11:41:35;;;;;;;9.40;8.40;;;27.90;99.90;;;;;;5015441;28;20407;-51
2023/06/20 11:44:02;;;;;;;11.13;8.23;;;28.10;99.90;;;;;;5015325;28;20419;-51
2023/06/20 11:46:28;;;;;;;10.17;7.53;;;28.20;99.90;;;;;;5015399;28;20485;-52
2023/06/20 11:48:57;;;;;;;8.60;7.80;;;28.30;99.90;;;;;;5015030;28;20466;-51
2023/06/20 11:51:27;;;;;;;8.83;8.03;;;28.20;99.90;;;;;;5015416;28;20567;-51
2023/06/20 11:54:02;;;;;;;9.47;8.40;;;28.40;99.90;;;;;;5014804;28;20491;-51
2023/06/20 11:56:28;;;;;;;8.70;7.90;;;28.60;99.90;;;;;;5015356;28;20737;-51
2023/06/20 11:58:54;;;;;;;9.30;8.47;;;28.70;99.90;;;;;;5015357;28;20427;-51
2023/06/20 12:01:23;;;;;;;12.30;8.43;;;28.90;99.90;;;;;;5015211;28;20180;-52
2023/06/20 12:04:03;;;;;;;18.23;8.70;;;28.90;99.90;;;;;;5014977;28;20423;-51
2023/06/20 12:06:30;;;;;;;10.87;8.83;;;28.80;99.90;;;;;;5014931;28;20431;-52
2023/06/20 12:08:58;;;;;;;10.83;8.40;;;28.90;99.90;;;;;;5014767;28;20544;-51
2023/06/20 12:11:24;;;;;;;9.67;7.97;;;28.80;99.90;;;;;;5014760;28;20435;-51
2023/06/20 12:13:52;;;;;;;9.23;7.83;;;28.70;99.90;;;;;;5014888;28;20770;-52
2023/06/20 12:16:19;;;;;;;14.77;8.20;;;28.60;99.90;;;;;;5014885;28;20411;-52
2023/06/20 12:18:46;;;;;;;8.60;7.80;;;28.50;99.90;;;;;;5015116;28;20489;-52
2023/06/20 12:21:11;;;;;;;9.37;7.90;;;28.50;99.90;;;;;;5014893;28;20428;-52
2023/06/20 12:23:37;;;;;;;12.83;8.07;;;28.60;99.90;;;;;;5015041;28;20415;-52
2023/06/20 12:26:03;;;;;;;12.83;8.57;;;28.60;99.90;;;;;;5014718;28;20538;-52
2023/06/20 12:28:28;;;;;;;8.80;7.50;;;28.70;99.90;;;;;;5014268;28;20239;-52
2023/06/20 12:30:54;;;;;;;7.93;7.23;;;28.60;99.90;;;;;;5014290;28;20636;-52
2023/06/20 12:33:19;;;;;;;9.23;8.13;;;28.50;99.90;;;;;;5014419;28;20180;-52
2023/06/20 12:35:45;;;;;;;9.90;8.70;;;28.50;99.90;;;;;;5014655;28;20268;-52
2023/06/20 12:38:11;;;;;;;11.50;8.70;;;28.50;99.90;;;;;;5014494;28;20460;-52
2023/06/20 12:40:37;;;;;;;8.57;7.77;;;28.70;99.90;;;;;;5014206;28;20250;-52
2023/06/20 12:43:02;;;;;;;9.73;7.33;;;28.90;99.90;;;;;;5014612;28;20192;-52